Time;durP1;ratioP1;P1;durP2;ratioP2;P2;SDS_P1;SDS_P2;PMS_P1;PMS_P2;Temp;Humidity;BMP_temperature;BMP_pressure;BME280_temperature;BME280_humidity;BME280_pressure;Samples;Min_cycle;Max_cycle;Signal;HPM_P1;HPM_P2
2023/12/06 00:01:17;;;;;;;36.03;19.42;;;;;;;;;;4973050;28;20663;-80
2023/12/06 00:03:42;;;;;;;33.95;17.52;;;;;;;;;;4970023;28;20046;-80
2023/12/06 00:06:07;;;;;;;32.13;18.13;;;;;;;;;;4957939;28;20031;-80
2023/12/06 00:08:33;;;;;;;34.55;20.58;;;;;;;;;;4957496;28;20032;-81
2023/12/06 00:10:59;;;;;;;31.38;16.83;;;;;;;;;;4986393;28;20035;-81
2023/12/06 00:13:24;;;;;;;35.10;19.92;;;;;;;;;;4978660;28;20403;-81
2023/12/06 00:15:50;;;;;;;33.67;18.58;;;;;;;;;;4951192;28;20027;-82
2023/12/06 00:18:15;;;;;;;35.47;19.15;;;;;;;;;;4976513;28;20033;-81
2023/12/06 00:20:40;;;;;;;35.25;19.30;;;;;;;;;;4955393;28;20519;-81
2023/12/06 00:23:05;;;;;;;35.78;19.33;;;;;;;;;;5013892;28;20056;-81
2023/12/06 00:25:30;;;;;;;32.05;18.38;;;;;;;;;;4983767;28;20069;-81
2023/12/06 00:27:55;;;;;;;33.38;18.45;;;;;;;;;;4987052;28;20028;-81
2023/12/06 00:30:21;;;;;;;34.70;19.63;;;;;;;;;;4973172;28;20027;-81
2023/12/06 00:32:46;;;;;;;31.98;17.70;;;;;;;;;;4962553;28;20056;-81
2023/12/06 00:35:11;;;;;;;31.88;17.30;;;;;;;;;;4976295;28;20087;-80
2023/12/06 00:37:36;;;;;;;28.92;16.67;;;;;;;;;;4992214;28;20042;-81
2023/12/06 00:40:03;;;;;;;28.67;15.60;;;;;;;;;;5009624;28;20064;-81
2023/12/06 00:42:28;;;;;;;29.13;17.02;;;;;;;;;;4973648;28;20053;-81
2023/12/06 00:44:53;;;;;;;31.63;18.13;;;;;;;;;;4975107;28;20114;-80
2023/12/06 00:47:18;;;;;;;33.40;18.35;;;;;;;;;;4956740;28;20039;-81
2023/12/06 00:49:44;;;;;;;34.05;18.15;;;;;;;;;;4978119;28;20125;-81
2023/12/06 00:52:09;;;;;;;30.70;16.92;;;;;;;;;;5009558;28;20032;-81
2023/12/06 00:54:34;;;;;;;32.88;18.08;;;;;;;;;;4982511;28;20028;-81
2023/12/06 00:56:59;;;;;;;33.35;18.67;;;;;;;;;;4982543;28;20044;-81
2023/12/06 00:59:25;;;;;;;30.88;17.63;;;;;;;;;;4962462;28;20103;-81
2023/12/06 01:01:50;;;;;;;30.80;15.93;;;;;;;;;;4956518;28;20032;-80
2023/12/06 01:04:15;;;;;;;29.88;17.50;;;;;;;;;;4991012;28;20032;-81
2023/12/06 01:06:40;;;;;;;31.60;17.80;;;;;;;;;;4987516;28;20046;-81
2023/12/06 01:09:06;;;;;;;32.53;17.17;;;;;;;;;;4986558;28;20033;-81
2023/12/06 01:11:31;;;;;;;29.60;17.35;;;;;;;;;;4967807;28;20034;-81
2023/12/06 01:13:57;;;;;;;31.63;17.63;;;;;;;;;;4963316;28;20021;-81
2023/12/06 01:16:22;;;;;;;30.70;16.67;;;;;;;;;;4955133;28;20035;-80
2023/12/06 01:18:47;;;;;;;32.35;17.40;;;;;;;;;;4970421;28;20502;-80
2023/12/06 01:21:12;;;;;;;30.42;18.08;;;;;;;;;;4982903;28;20033;-80
2023/12/06 01:23:37;;;;;;;32.40;17.20;;;;;;;;;;4972256;28;20557;-81
2023/12/06 01:26:03;;;;;;;30.45;17.30;;;;;;;;;;4962395;28;20110;-80
2023/12/06 01:28:28;;;;;;;33.17;18.23;;;;;;;;;;4950803;28;20549;-81
2023/12/06 01:30:53;;;;;;;33.75;20.25;;;;;;;;;;4959749;28;20214;-80
2023/12/06 01:33:18;;;;;;;33.45;19.00;;;;;;;;;;4996212;28;20045;-80
2023/12/06 01:35:43;;;;;;;36.63;19.52;;;;;;;;;;4985877;28;20040;-79
2023/12/06 01:38:10;;;;;;;35.13;18.67;;;;;;;;;;4988705;28;20037;-80
2023/12/06 01:40:38;;;;;;;35.03;19.92;;;;;;;;;;4962039;28;20054;-81
2023/12/06 01:43:03;;;;;;;39.67;22.08;;;;;;;;;;4950491;28;20035;-80
2023/12/06 01:45:29;;;;;;;34.28;18.75;;;;;;;;;;4971858;28;20461;-80
2023/12/06 01:47:54;;;;;;;35.17;19.88;;;;;;;;;;4997560;28;20040;-81
2023/12/06 01:50:20;;;;;;;35.53;19.33;;;;;;;;;;4979215;28;20058;-80
2023/12/06 01:52:46;;;;;;;38.25;22.00;;;;;;;;;;4973767;28;20059;-80
2023/12/06 01:55:11;;;;;;;36.38;20.80;;;;;;;;;;4964802;28;20065;-80
2023/12/06 01:57:36;;;;;;;38.65;22.08;;;;;;;;;;4949083;28;20047;-81
2023/12/06 02:00:03;;;;;;;38.67;22.08;;;;;;;;;;5001647;28;20033;-81
2023/12/06 02:02:36;;;;;;;43.38;22.95;;;;;;;;;;4980572;28;20401;-80
2023/12/06 02:05:02;;;;;;;40.30;22.17;;;;;;;;;;4980926;28;20040;-81
2023/12/06 02:07:28;;;;;;;39.70;21.67;;;;;;;;;;4966634;28;20039;-81
2023/12/06 02:09:53;;;;;;;41.63;22.17;;;;;;;;;;4975303;28;20032;-81
2023/12/06 02:12:18;;;;;;;38.85;21.30;;;;;;;;;;4949821;28;20046;-81
2023/12/06 02:14:43;;;;;;;41.25;23.27;;;;;;;;;;4994425;28;20088;-81
2023/12/06 02:17:09;;;;;;;41.97;23.33;;;;;;;;;;4993659;28;20060;-81
2023/12/06 02:19:35;;;;;;;44.17;23.05;;;;;;;;;;4973381;28;20089;-81
2023/12/06 02:22:00;;;;;;;46.28;24.90;;;;;;;;;;4973587;28;20146;-81
2023/12/06 02:24:28;;;;;;;43.25;24.08;;;;;;;;;;4960240;28;20023;-81
2023/12/06 02:26:54;;;;;;;39.72;23.23;;;;;;;;;;4986768;28;20031;-81
2023/12/06 02:29:19;;;;;;;45.15;24.42;;;;;;;;;;4987799;28;20090;-80
2023/12/06 02:31:44;;;;;;;40.78;22.45;;;;;;;;;;4983956;28;20030;-81
2023/12/06 02:34:11;;;;;;;45.83;24.00;;;;;;;;;;4973941;28;20066;-81
2023/12/06 02:36:38;;;;;;;47.55;25.40;;;;;;;;;;4963196;28;20032;-80
2023/12/06 02:39:04;;;;;;;43.60;24.60;;;;;;;;;;4956147;28;20038;-80
2023/12/06 02:41:31;;;;;;;44.58;23.17;;;;;;;;;;4995661;28;20042;-81
2023/12/06 02:43:56;;;;;;;43.45;24.85;;;;;;;;;;5001644;28;20036;-81
2023/12/06 02:46:21;;;;;;;43.17;22.45;;;;;;;;;;4984375;28;20028;-81
2023/12/06 02:48:46;;;;;;;40.78;22.65;;;;;;;;;;4977314;28;20056;-81
2023/12/06 02:51:11;;;;;;;40.78;22.30;;;;;;;;;;4963397;28;20027;-80
2023/12/06 02:53:37;;;;;;;43.40;24.08;;;;;;;;;;4959570;28;20051;-81
2023/12/06 02:56:02;;;;;;;44.30;23.30;;;;;;;;;;4977665;28;20051;-81
2023/12/06 02:58:27;;;;;;;40.03;21.70;;;;;;;;;;4971167;28;20028;-80
2023/12/06 03:00:52;;;;;;;42.17;22.75;;;;;;;;;;4988198;28;20039;-80
2023/12/06 03:03:18;;;;;;;38.40;21.58;;;;;;;;;;4967453;28;20094;-80
2023/12/06 03:05:43;;;;;;;39.47;20.70;;;;;;;;;;4954850;28;20023;-80
2023/12/06 03:08:08;;;;;;;46.53;25.63;;;;;;;;;;4974310;28;20120;-80
2023/12/06 03:10:33;;;;;;;40.40;23.33;;;;;;;;;;4989138;28;20023;-80
2023/12/06 03:12:59;;;;;;;38.33;20.33;;;;;;;;;;4994330;28;20029;-80
2023/12/06 03:15:24;;;;;;;41.88;23.08;;;;;;;;;;4973867;28;20054;-80
2023/12/06 03:17:49;;;;;;;43.65;23.70;;;;;;;;;;4969072;28;20027;-80
2023/12/06 03:20:14;;;;;;;36.42;21.04;;;;;;;;;;4959074;28;20031;-80
2023/12/06 03:22:39;;;;;;;42.58;22.95;;;;;;;;;;4979980;28;20034;-80
2023/12/06 03:25:07;;;;;;;41.97;24.73;;;;;;;;;;5007506;28;20627;-80
2023/12/06 03:27:33;;;;;;;42.15;23.02;;;;;;;;;;4976363;28;20043;-81
2023/12/06 03:29:58;;;;;;;43.50;23.60;;;;;;;;;;4977766;28;20032;-80
2023/12/06 03:32:23;;;;;;;37.75;21.58;;;;;;;;;;4965505;28;20035;-80
2023/12/06 03:34:48;;;;;;;40.20;23.90;;;;;;;;;;4960701;28;20491;-80
2023/12/06 03:37:13;;;;;;;38.58;21.40;;;;;;;;;;4992557;28;20025;-80
2023/12/06 03:39:38;;;;;;;41.60;23.70;;;;;;;;;;4988503;28;20039;-81
2023/12/06 03:42:04;;;;;;;38.38;21.58;;;;;;;;;;4991553;28;20129;-81
2023/12/06 03:44:29;;;;;;;41.28;23.30;;;;;;;;;;4970537;28;20114;-81
2023/12/06 03:46:54;;;;;;;38.97;21.52;;;;;;;;;;4967419;28;20067;-80
2023/12/06 03:49:19;;;;;;;41.67;23.38;;;;;;;;;;4958537;28;20030;-80
2023/12/06 03:51:44;;;;;;;40.00;22.88;;;;;;;;;;4986630;28;20031;-81
2023/12/06 03:54:10;;;;;;;37.90;21.40;;;;;;;;;;4997813;28;20035;-81
2023/12/06 03:56:35;;;;;;;38.88;21.70;;;;;;;;;;4978122;28;20035;-81
2023/12/06 03:59:00;;;;;;;40.35;22.63;;;;;;;;;;4978126;28;20056;-80
2023/12/06 04:01:25;;;;;;;43.35;23.90;;;;;;;;;;4958390;28;20031;-81
2023/12/06 04:03:50;;;;;;;40.03;22.02;;;;;;;;;;4960597;28;20107;-81
2023/12/06 04:06:16;;;;;;;38.70;20.55;;;;;;;;;;5004257;28;20504;-81
2023/12/06 04:08:41;;;;;;;38.55;21.70;;;;;;;;;;4985414;28;20035;-81
2023/12/06 04:11:06;;;;;;;38.75;21.42;;;;;;;;;;4988140;28;20086;-80
2023/12/06 04:13:31;;;;;;;39.70;21.90;;;;;;;;;;4970739;28;20409;-81
2023/12/06 04:15:56;;;;;;;40.47;22.17;;;;;;;;;;4967251;28;20028;-80
2023/12/06 04:18:21;;;;;;;42.15;23.27;;;;;;;;;;4972934;28;20033;-81
2023/12/06 04:20:47;;;;;;;39.30;23.33;;;;;;;;;;4991731;28;20035;-80
2023/12/06 04:23:12;;;;;;;40.30;22.17;;;;;;;;;;4970971;28;20056;-82
2023/12/06 04:25:37;;;;;;;41.63;23.35;;;;;;;;;;4977687;28;20027;-82
2023/12/06 04:28:02;;;;;;;42.40;22.42;;;;;;;;;;4961156;28;20421;-81
2023/12/06 04:30:27;;;;;;;38.13;22.00;;;;;;;;;;4960969;28;20069;-82
2023/12/06 04:32:52;;;;;;;41.00;23.10;;;;;;;;;;4985851;28;20030;-82
2023/12/06 04:35:18;;;;;;;42.05;22.77;;;;;;;;;;4970185;28;20063;-82
2023/12/06 04:37:43;;;;;;;40.80;20.75;;;;;;;;;;4969280;28;20411;-82
2023/12/06 04:40:08;;;;;;;41.22;22.55;;;;;;;;;;4983506;28;20033;-82
2023/12/06 04:42:34;;;;;;;40.10;22.50;;;;;;;;;;4964427;28;20085;-82
2023/12/06 04:44:59;;;;;;;37.00;21.23;;;;;;;;;;4965129;28;20035;-82
2023/12/06 04:47:24;;;;;;;37.95;21.80;;;;;;;;;;4993882;28;20144;-80
2023/12/06 04:49:49;;;;;;;37.08;20.60;;;;;;;;;;4980223;28;20135;-78
2023/12/06 04:52:14;;;;;;;42.13;22.50;;;;;;;;;;4988884;28;20503;-80
2023/12/06 04:54:39;;;;;;;38.05;19.95;;;;;;;;;;4976340;28;20027;-81
2023/12/06 04:57:05;;;;;;;40.92;21.50;;;;;;;;;;4967316;28;20118;-80
2023/12/06 04:59:30;;;;;;;38.97;20.63;;;;;;;;;;4959980;28;20032;-81
2023/12/06 05:01:55;;;;;;;39.28;20.60;;;;;;;;;;5000659;28;20110;-82
2023/12/06 05:04:22;;;;;;;38.55;22.13;;;;;;;;;;4960340;28;20042;-82
2023/12/06 05:06:47;;;;;;;37.22;20.98;;;;;;;;;;4971720;28;20028;-82
2023/12/06 05:09:12;;;;;;;41.60;22.63;;;;;;;;;;4978770;28;20053;-82
2023/12/06 05:11:37;;;;;;;38.38;21.65;;;;;;;;;;4956957;28;20070;-82
2023/12/06 05:14:03;;;;;;;36.53;21.27;;;;;;;;;;4971319;28;20025;-82
2023/12/06 05:16:28;;;;;;;37.53;21.30;;;;;;;;;;4995216;28;20036;-83
2023/12/06 05:18:53;;;;;;;40.35;21.98;;;;;;;;;;4982079;28;20381;-81
2023/12/06 05:21:18;;;;;;;38.75;20.23;;;;;;;;;;4984839;28;20058;-81
2023/12/06 05:23:44;;;;;;;36.80;20.48;;;;;;;;;;4966654;28;20038;-81
2023/12/06 05:26:09;;;;;;;62.88;33.13;;;;;;;;;;4955682;28;20035;-80
2023/12/06 05:28:34;;;;;;;46.58;25.95;;;;;;;;;;4946214;28;20032;-80
2023/12/06 05:30:59;;;;;;;41.03;20.73;;;;;;;;;;4951282;28;20492;-80
2023/12/06 05:33:24;;;;;;;36.70;20.67;;;;;;;;;;4950722;28;20020;-81
2023/12/06 05:35:50;;;;;;;38.28;20.65;;;;;;;;;;4949064;28;20024;-80
2023/12/06 05:38:15;;;;;;;45.17;26.35;;;;;;;;;;4948217;28;20063;-81
2023/12/06 05:40:40;;;;;;;39.33;21.05;;;;;;;;;;4949864;28;20514;-80
2023/12/06 05:43:06;;;;;;;36.08;21.05;;;;;;;;;;4950332;28;20053;-80
2023/12/06 05:45:32;;;;;;;34.35;19.10;;;;;;;;;;4938365;28;20038;-81
2023/12/06 05:47:57;;;;;;;37.90;20.42;;;;;;;;;;4945910;28;20403;-80
2023/12/06 05:50:22;;;;;;;38.03;19.98;;;;;;;;;;4945462;28;20375;-80
2023/12/06 05:52:47;;;;;;;41.08;22.45;;;;;;;;;;4952210;28;20053;-80
2023/12/06 05:55:13;;;;;;;39.17;22.17;;;;;;;;;;4951068;28;20621;-80
2023/12/06 05:57:38;;;;;;;35.92;21.23;;;;;;;;;;4960965;28;20419;-81
2023/12/06 06:00:05;;;;;;;38.38;20.58;;;;;;;;;;4962220;28;20029;-81
2023/12/06 06:02:35;;;;;;;35.58;20.25;;;;;;;;;;4973267;28;20670;-81
2023/12/06 06:05:00;;;;;;;47.50;26.40;;;;;;;;;;4968582;28;20039;-81
2023/12/06 06:07:26;;;;;;;45.50;25.38;;;;;;;;;;4955111;28;20185;-82
2023/12/06 06:09:51;;;;;;;42.10;22.40;;;;;;;;;;4954924;28;20042;-81
2023/12/06 06:12:17;;;;;;;42.45;22.23;;;;;;;;;;5002726;28;20519;-81
2023/12/06 06:14:42;;;;;;;35.83;19.85;;;;;;;;;;4962544;28;20487;-81
2023/12/06 06:17:07;;;;;;;35.03;19.85;;;;;;;;;;4959497;28;20050;-81
2023/12/06 06:19:32;;;;;;;34.45;19.42;;;;;;;;;;4955682;28;20037;-81
2023/12/06 06:21:57;;;;;;;47.42;24.48;;;;;;;;;;4953450;28;20040;-81
2023/12/06 06:24:22;;;;;;;44.38;24.25;;;;;;;;;;4972183;28;20419;-81
2023/12/06 06:26:47;;;;;;;36.95;22.25;;;;;;;;;;4967897;28;20042;-81
2023/12/06 06:29:13;;;;;;;39.28;23.70;;;;;;;;;;4946608;28;20054;-81
2023/12/06 06:31:38;;;;;;;39.95;21.65;;;;;;;;;;4945132;28;20122;-82
2023/12/06 06:34:03;;;;;;;36.45;19.80;;;;;;;;;;4956229;28;20023;-81
2023/12/06 06:36:28;;;;;;;36.15;21.23;;;;;;;;;;4947068;28;20542;-81
2023/12/06 06:38:55;;;;;;;36.10;19.65;;;;;;;;;;4994041;28;20164;-81
2023/12/06 06:41:20;;;;;;;37.03;20.70;;;;;;;;;;4993138;28;20037;-81
2023/12/06 06:43:46;;;;;;;35.95;20.48;;;;;;;;;;4972879;28;20034;-81
2023/12/06 06:46:11;;;;;;;40.47;21.15;;;;;;;;;;4972529;28;20033;-81
2023/12/06 06:48:37;;;;;;;36.58;20.48;;;;;;;;;;4953113;28;20032;-81
2023/12/06 06:51:03;;;;;;;36.78;20.73;;;;;;;;;;4951223;28;20388;-81
2023/12/06 06:53:28;;;;;;;37.05;21.08;;;;;;;;;;4985233;28;20031;-81
2023/12/06 06:55:53;;;;;;;33.05;18.73;;;;;;;;;;4952915;28;20024;-81
2023/12/06 06:58:18;;;;;;;34.10;19.85;;;;;;;;;;4979305;28;20091;-81
2023/12/06 07:00:43;;;;;;;36.67;21.02;;;;;;;;;;4959612;28;20093;-81
2023/12/06 07:03:08;;;;;;;37.22;22.40;;;;;;;;;;4951807;28;20511;-81
2023/12/06 07:05:34;;;;;;;34.70;19.38;;;;;;;;;;4947561;28;20035;-81
2023/12/06 07:07:59;;;;;;;35.50;20.75;;;;;;;;;;4979515;28;20048;-81
2023/12/06 07:10:24;;;;;;;32.95;18.30;;;;;;;;;;4981220;28;20023;-81
2023/12/06 07:12:49;;;;;;;31.90;18.90;;;;;;;;;;4961803;28;20035;-81
2023/12/06 07:15:15;;;;;;;47.65;25.63;;;;;;;;;;4966907;28;20114;-81
2023/12/06 07:17:45;;;;;;;47.63;25.88;;;;;;;;;;4935800;28;20032;-81
2023/12/06 07:20:11;;;;;;;37.60;21.75;;;;;;;;;;4991658;28;20111;-82
2023/12/06 07:22:37;;;;;;;37.20;20.50;;;;;;;;;;5004043;28;20116;-81
2023/12/06 07:25:02;;;;;;;39.80;21.13;;;;;;;;;;4963190;28;20032;-81
2023/12/06 07:27:27;;;;;;;37.72;21.35;;;;;;;;;;4945828;28;20470;-81
2023/12/06 07:29:53;;;;;;;37.17;20.42;;;;;;;;;;4949229;28;20027;-81
2023/12/06 07:32:18;;;;;;;38.10;20.88;;;;;;;;;;4972787;28;20025;-81
2023/12/06 07:34:43;;;;;;;33.60;18.60;;;;;;;;;;4990961;28;20031;-81
2023/12/06 07:37:08;;;;;;;40.90;21.90;;;;;;;;;;4984423;28;20096;-81
2023/12/06 07:39:34;;;;;;;35.00;19.40;;;;;;;;;;4988690;28;20043;-81
2023/12/06 07:41:59;;;;;;;39.83;22.73;;;;;;;;;;4972993;28;20031;-81
2023/12/06 07:44:24;;;;;;;41.00;20.05;;;;;;;;;;4956417;28;20035;-81
2023/12/06 07:46:49;;;;;;;39.28;21.05;;;;;;;;;;4981097;28;20035;-80
2023/12/06 07:49:15;;;;;;;36.53;20.88;;;;;;;;;;5001278;28;20028;-81
2023/12/06 07:51:41;;;;;;;35.78;20.23;;;;;;;;;;4981296;28;20125;-81
2023/12/06 07:54:06;;;;;;;39.95;21.85;;;;;;;;;;4987521;28;20033;-81
2023/12/06 07:56:33;;;;;;;40.42;18.85;;;;;;;;;;4959281;28;20122;-81
2023/12/06 07:58:58;;;;;;;37.60;19.77;;;;;;;;;;4954701;28;20502;-80
2023/12/06 08:01:24;;;;;;;38.95;21.38;;;;;;;;;;4950366;28;20035;-80
2023/12/06 08:03:49;;;;;;;35.47;19.83;;;;;;;;;;4989576;28;20082;-81
2023/12/06 08:06:15;;;;;;;39.35;20.33;;;;;;;;;;4977512;28;20028;-81
2023/12/06 08:08:40;;;;;;;37.15;20.33;;;;;;;;;;4967163;28;20398;-81
2023/12/06 08:11:05;;;;;;;35.78;20.00;;;;;;;;;;4967516;28;20497;-81
2023/12/06 08:13:33;;;;;;;37.60;21.17;;;;;;;;;;4955628;28;20053;-81
2023/12/06 08:15:59;;;;;;;35.20;19.95;;;;;;;;;;4986038;28;20035;-81
2023/12/06 08:18:24;;;;;;;35.80;21.40;;;;;;;;;;4973603;28;20046;-81
2023/12/06 08:20:49;;;;;;;37.03;19.98;;;;;;;;;;4949932;28;20051;-81
2023/12/06 08:23:14;;;;;;;37.83;21.83;;;;;;;;;;4951959;28;20094;-81
2023/12/06 08:25:40;;;;;;;40.67;21.70;;;;;;;;;;4957545;28;20050;-81
2023/12/06 08:28:05;;;;;;;34.38;21.08;;;;;;;;;;4964742;28;20037;-81
2023/12/06 08:30:30;;;;;;;34.10;18.90;;;;;;;;;;4978634;28;20085;-81
2023/12/06 08:32:55;;;;;;;33.70;18.90;;;;;;;;;;4987148;28;20460;-81
2023/12/06 08:35:21;;;;;;;33.72;18.98;;;;;;;;;;4984162;28;20023;-81
2023/12/06 08:37:46;;;;;;;35.42;18.63;;;;;;;;;;4964520;28;20042;-81
2023/12/06 08:40:12;;;;;;;35.10;19.50;;;;;;;;;;4960962;28;20027;-81
2023/12/06 08:42:38;;;;;;;32.50;18.17;;;;;;;;;;4967999;28;20028;-81
2023/12/06 08:45:04;;;;;;;35.97;19.23;;;;;;;;;;4973287;28;20024;-81
2023/12/06 08:47:29;;;;;;;38.03;21.42;;;;;;;;;;4978223;28;20367;-81
2023/12/06 08:49:54;;;;;;;33.08;18.88;;;;;;;;;;4979820;28;20485;-80
2023/12/06 08:52:19;;;;;;;37.45;19.98;;;;;;;;;;4958816;28;20415;-81
2023/12/06 08:54:44;;;;;;;32.70;18.55;;;;;;;;;;4947030;28;20028;-81
2023/12/06 08:57:11;;;;;;;32.92;20.52;;;;;;;;;;4991811;28;20086;-81
2023/12/06 08:59:36;;;;;;;32.90;18.48;;;;;;;;;;5000224;28;20085;-81
2023/12/06 09:02:02;;;;;;;34.92;18.90;;;;;;;;;;4953095;28;20036;-82
2023/12/06 09:04:27;;;;;;;34.40;18.80;;;;;;;;;;4969787;28;20050;-81
2023/12/06 09:06:52;;;;;;;30.05;16.50;;;;;;;;;;4962703;28;20381;-81
2023/12/06 09:09:17;;;;;;;33.63;18.33;;;;;;;;;;4952635;28;20047;-82
2023/12/06 09:11:45;;;;;;;30.25;17.67;;;;;;;;;;4994501;28;20046;-82
2023/12/06 09:14:11;;;;;;;38.47;22.42;;;;;;;;;;4964852;28;20161;-82
2023/12/06 09:16:36;;;;;;;35.72;21.55;;;;;;;;;;4953961;28;20066;-81
2023/12/06 09:19:01;;;;;;;37.45;22.52;;;;;;;;;;4963891;28;20416;-81
2023/12/06 09:21:27;;;;;;;28.92;17.67;;;;;;;;;;4947712;28;20461;-82
2023/12/06 09:23:52;;;;;;;31.85;18.80;;;;;;;;;;4952241;28;20027;-81
2023/12/06 09:26:17;;;;;;;31.40;17.98;;;;;;;;;;4994698;28;20037;-82
2023/12/06 09:28:43;;;;;;;30.55;18.52;;;;;;;;;;4976645;28;20105;-81
2023/12/06 09:31:08;;;;;;;34.50;20.67;;;;;;;;;;4966090;28;20043;-82
2023/12/06 09:33:33;;;;;;;33.38;18.27;;;;;;;;;;4946212;28;20023;-82
2023/12/06 09:35:59;;;;;;;34.35;20.35;;;;;;;;;;4951727;28;20049;-82
2023/12/06 09:38:24;;;;;;;34.72;18.40;;;;;;;;;;4991733;28;20108;-82
2023/12/06 09:40:49;;;;;;;34.40;18.75;;;;;;;;;;4969468;28;20415;-82
2023/12/06 09:43:17;;;;;;;30.48;17.10;;;;;;;;;;4946968;28;20035;-81
2023/12/06 09:45:42;;;;;;;33.22;19.23;;;;;;;;;;4948833;28;20221;-81
2023/12/06 09:48:08;;;;;;;46.83;22.73;;;;;;;;;;4959991;28;20047;-82
2023/12/06 09:50:33;;;;;;;41.75;22.35;;;;;;;;;;4951322;28;20062;-81
2023/12/06 09:52:58;;;;;;;40.08;21.30;;;;;;;;;;4949797;28;20122;-82
2023/12/06 09:55:24;;;;;;;34.63;20.25;;;;;;;;;;4976563;28;20030;-82
2023/12/06 09:57:53;;;;;;;33.40;19.30;;;;;;;;;;4971258;28;20447;-82
2023/12/06 10:00:18;;;;;;;33.95;19.00;;;;;;;;;;4970968;28;20091;-81
2023/12/06 10:02:54;;;;;;;36.58;19.55;;;;;;;;;;4954466;28;20107;-81
2023/12/06 10:05:19;;;;;;;35.17;21.38;;;;;;;;;;4973022;28;20041;-81
2023/12/06 10:07:45;;;;;;;33.28;19.50;;;;;;;;;;4988122;28;20039;-82
2023/12/06 10:10:14;;;;;;;58.53;32.40;;;;;;;;;;5001116;28;20021;-82
2023/12/06 10:12:46;;;;;;;38.45;21.88;;;;;;;;;;4968552;28;20031;-81
2023/12/06 10:15:11;;;;;;;33.20;18.15;;;;;;;;;;4965638;28;20118;-81
2023/12/06 10:17:36;;;;;;;31.30;20.23;;;;;;;;;;4953750;28;20389;-81
2023/12/06 10:20:03;;;;;;;30.13;17.27;;;;;;;;;;4981858;28;20050;-82
2023/12/06 10:22:29;;;;;;;35.15;19.73;;;;;;;;;;4983613;28;20028;-82
2023/12/06 10:24:55;;;;;;;31.58;19.27;;;;;;;;;;4973978;28;20085;-82
2023/12/06 10:27:23;;;;;;;34.53;19.00;;;;;;;;;;4980066;28;20028;-81
2023/12/06 10:29:50;;;;;;;32.47;18.33;;;;;;;;;;4949879;28;20036;-82
2023/12/06 10:32:16;;;;;;;29.40;17.48;;;;;;;;;;4950656;28;20039;-82
2023/12/06 10:34:41;;;;;;;30.33;17.02;;;;;;;;;;5008090;28;20032;-82
2023/12/06 10:37:08;;;;;;;30.33;17.90;;;;;;;;;;5011478;28;20043;-82
2023/12/06 10:39:35;;;;;;;29.73;17.98;;;;;;;;;;4975029;28;20038;-82
2023/12/06 10:42:02;;;;;;;31.85;18.70;;;;;;;;;;4967349;28;20043;-81
2023/12/06 10:44:27;;;;;;;28.85;17.23;;;;;;;;;;4952643;28;20391;-81
2023/12/06 10:46:53;;;;;;;31.65;18.58;;;;;;;;;;4951490;28;20024;-81
2023/12/06 10:49:19;;;;;;;32.90;18.95;;;;;;;;;;4989041;28;20111;-81
2023/12/06 10:51:45;;;;;;;30.45;17.83;;;;;;;;;;4951546;28;20442;-82
2023/12/06 10:54:11;;;;;;;34.20;20.38;;;;;;;;;;4972237;28;20435;-81
2023/12/06 10:56:38;;;;;;;30.25;18.33;;;;;;;;;;4964881;28;20514;-82
2023/12/06 10:59:04;;;;;;;30.77;17.52;;;;;;;;;;4955485;28;20042;-83
2023/12/06 11:01:31;;;;;;;28.42;17.00;;;;;;;;;;4950679;28;20046;-83
2023/12/06 11:03:57;;;;;;;29.55;18.33;;;;;;;;;;4994310;28;20039;-83
2023/12/06 11:06:35;;;;;;;34.50;18.70;;;;;;;;;;4998450;28;20033;-82
2023/12/06 11:09:08;;;;;;;32.22;18.00;;;;;;;;;;4984203;28;20031;-82
2023/12/06 11:11:33;;;;;;;30.55;17.63;;;;;;;;;;4979996;28;20110;-82
2023/12/06 11:14:13;;;;;;;31.13;18.13;;;;;;;;;;4953557;28;20576;-82
2023/12/06 11:16:56;;;;;;;29.08;15.57;;;;;;;;;;4954656;28;20023;-83
2023/12/06 11:19:22;;;;;;;27.17;16.08;;;;;;;;;;4996950;28;20025;-82
2023/12/06 11:21:47;;;;;;;30.77;18.65;;;;;;;;;;4974243;28;20542;-82
2023/12/06 11:24:12;;;;;;;29.05;17.63;;;;;;;;;;4980644;28;20546;-83
2023/12/06 11:26:38;;;;;;;28.98;17.35;;;;;;;;;;4959309;28;20066;-82
2023/12/06 11:29:03;;;;;;;30.77;18.67;;;;;;;;;;4961849;28;20031;-82
2023/12/06 11:31:36;;;;;;;30.88;18.58;;;;;;;;;;4997963;28;20032;-82
2023/12/06 11:34:06;;;;;;;28.70;17.45;;;;;;;;;;4990672;28;20027;-82
2023/12/06 11:36:31;;;;;;;28.98;17.05;;;;;;;;;;4969543;28;20039;-82
2023/12/06 11:38:56;;;;;;;30.35;17.73;;;;;;;;;;4965278;28;20039;-82
2023/12/06 11:41:21;;;;;;;28.27;15.85;;;;;;;;;;4958106;28;20114;-82
2023/12/06 11:43:48;;;;;;;29.08;17.25;;;;;;;;;;4973492;28;20035;-81
2023/12/06 11:46:13;;;;;;;33.00;18.30;;;;;;;;;;4953373;28;20085;-82
2023/12/06 11:48:39;;;;;;;30.35;16.92;;;;;;;;;;4965934;28;20039;-83
2023/12/06 11:51:05;;;;;;;29.85;17.50;;;;;;;;;;4981118;28;20032;-82
2023/12/06 11:53:30;;;;;;;26.38;16.23;;;;;;;;;;4959898;28;20032;-82
2023/12/06 11:55:56;;;;;;;28.58;15.90;;;;;;;;;;4983872;28;20061;-82
2023/12/06 11:58:22;;;;;;;30.73;18.17;;;;;;;;;;4988531;28;20032;-82
2023/12/06 12:00:48;;;;;;;28.58;17.60;;;;;;;;;;4986552;28;20438;-79
2023/12/06 12:03:14;;;;;;;27.83;16.15;;;;;;;;;;4951557;28;20145;-82
2023/12/06 12:05:42;;;;;;;30.88;17.23;;;;;;;;;;4966634;28;20519;-81
2023/12/06 12:08:09;;;;;;;28.67;17.73;;;;;;;;;;4965813;28;20039;-81
2023/12/06 12:10:36;;;;;;;27.95;16.30;;;;;;;;;;4972528;28;20021;-81
2023/12/06 12:13:01;;;;;;;29.10;15.77;;;;;;;;;;4995946;28;20035;-81
2023/12/06 12:15:26;;;;;;;27.20;15.48;;;;;;;;;;4995239;28;20017;-81
2023/12/06 12:17:52;;;;;;;26.88;16.50;;;;;;;;;;4980922;28;20023;-81
2023/12/06 12:20:17;;;;;;;25.35;15.20;;;;;;;;;;4977222;28;20502;-81
2023/12/06 12:22:43;;;;;;;28.05;15.50;;;;;;;;;;4953650;28;20032;-81
2023/12/06 12:25:08;;;;;;;26.67;16.27;;;;;;;;;;4949212;28;20028;-81
2023/12/06 12:27:34;;;;;;;26.65;15.73;;;;;;;;;;4969272;28;20369;-82
2023/12/06 12:29:59;;;;;;;30.30;16.60;;;;;;;;;;4949500;28;20043;-82
2023/12/06 12:32:26;;;;;;;27.52;16.23;;;;;;;;;;4950304;28;20525;-82
2023/12/06 12:34:52;;;;;;;28.90;16.35;;;;;;;;;;4958979;28;20038;-82
2023/12/06 12:37:17;;;;;;;29.35;16.10;;;;;;;;;;4956616;28;20055;-82
2023/12/06 12:39:42;;;;;;;24.20;15.38;;;;;;;;;;4982700;28;20043;-82
2023/12/06 12:42:08;;;;;;;23.23;13.55;;;;;;;;;;4969116;28;20031;-82
2023/12/06 12:44:34;;;;;;;24.23;13.10;;;;;;;;;;4956678;28;20053;-81
2023/12/06 12:47:00;;;;;;;26.30;14.27;;;;;;;;;;4950161;28;20065;-82
2023/12/06 12:49:25;;;;;;;23.63;12.55;;;;;;;;;;4952862;28;20035;-83
2023/12/06 12:51:50;;;;;;;25.90;15.60;;;;;;;;;;4945623;28;20429;-81
2023/12/06 12:54:16;;;;;;;25.10;14.35;;;;;;;;;;4951102;28;20855;-82
2023/12/06 12:56:42;;;;;;;22.23;13.02;;;;;;;;;;4981445;28;20038;-81
2023/12/06 12:59:07;;;;;;;20.50;12.18;;;;;;;;;;4971640;28;20122;-81
2023/12/06 13:01:32;;;;;;;20.40;12.43;;;;;;;;;;4947364;28;20059;-81
2023/12/06 13:03:58;;;;;;;19.35;12.35;;;;;;;;;;4954496;28;20047;-81
2023/12/06 13:06:23;;;;;;;24.52;15.45;;;;;;;;;;4972504;28;20044;-82
2023/12/06 13:08:53;;;;;;;20.90;12.10;;;;;;;;;;4984942;28;20035;-81
2023/12/06 13:11:19;;;;;;;17.88;10.77;;;;;;;;;;4974497;28;20083;-81
2023/12/06 13:13:44;;;;;;;18.83;11.27;;;;;;;;;;4982505;28;20035;-81
2023/12/06 13:16:09;;;;;;;18.92;11.00;;;;;;;;;;4968596;28;20058;-81
2023/12/06 13:18:37;;;;;;;19.63;11.68;;;;;;;;;;4948587;28;20040;-81
2023/12/06 13:21:03;;;;;;;17.60;10.65;;;;;;;;;;4959005;28;20118;-81
2023/12/06 13:23:28;;;;;;;18.48;10.65;;;;;;;;;;4983925;28;20077;-81
2023/12/06 13:25:53;;;;;;;19.50;10.85;;;;;;;;;;4951764;28;20032;-81
2023/12/06 13:28:18;;;;;;;18.88;9.55;;;;;;;;;;4966278;28;20059;-81
2023/12/06 13:30:45;;;;;;;16.40;9.73;;;;;;;;;;4956916;28;20105;-81
2023/12/06 13:33:10;;;;;;;27.52;15.98;;;;;;;;;;4952752;28;20028;-81
2023/12/06 13:35:35;;;;;;;22.55;13.60;;;;;;;;;;4969887;28;20032;-82
2023/12/06 13:38:02;;;;;;;17.67;11.00;;;;;;;;;;4989334;28;20040;-82
2023/12/06 13:40:27;;;;;;;20.15;12.23;;;;;;;;;;4971943;28;20031;-84
2023/12/06 13:42:52;;;;;;;20.17;12.15;;;;;;;;;;4944326;28;20028;-83
2023/12/06 13:45:17;;;;;;;17.65;10.27;;;;;;;;;;4944880;28;20550;-83
2023/12/06 13:47:43;;;;;;;21.05;11.52;;;;;;;;;;4946127;28;20024;-84
2023/12/06 13:50:08;;;;;;;18.67;10.60;;;;;;;;;;4984177;28;20036;-84
2023/12/06 13:52:33;;;;;;;18.10;10.20;;;;;;;;;;4981491;28;20130;-84
2023/12/06 13:54:58;;;;;;;18.58;10.98;;;;;;;;;;4973314;28;20051;-83
2023/12/06 13:57:23;;;;;;;19.02;9.57;;;;;;;;;;4972803;28;20051;-84
2023/12/06 13:59:49;;;;;;;16.40;9.80;;;;;;;;;;4945167;28;20035;-84
2023/12/06 14:02:14;;;;;;;17.88;10.50;;;;;;;;;;4964515;28;20511;-81
2023/12/06 14:04:39;;;;;;;18.10;11.07;;;;;;;;;;4970184;28;20055;-81
2023/12/06 14:07:04;;;;;;;17.10;10.57;;;;;;;;;;4961958;28;20503;-81